AAY2246 KIND-KLAS
Flight info
| Callsign | AAY2246 |
|---|---|
| Flight time | N/A |
| Altitude | 38000 |
| Route | ROCKY1 SPI J80 MCI J24 SLN J102 LAA DVC TYEGR CHOWW4 |
| Aircraft | A320/M-SDE3FGHIRWY/LB1 |
Departure
| Time | 2026-05-06 17:44 |
|---|---|
| Airport | Indianapolis International Airport (KIND) |
Arrival
| Time | N/A |
|---|---|
| Airport | Harry Reid International Airport (KLAS) |
| Time | Latitude | Longitude | Altitude | Speed | Heading |
|---|---|---|---|---|---|
| 2026-05-06 17:26 | 39.71612 | -86.30000 | 785 ft | 0 kts | 130° |
| 2026-05-06 17:34 | 39.71614 | -86.30003 | 785 ft | 3 kts | 130° |
| 2026-05-06 17:34 | 39.71631 | -86.30030 | 784 ft | 4 kts | 130° |
| 2026-05-06 17:34 | 39.71647 | -86.30056 | 784 ft | 2 kts | 130° |
| 2026-05-06 17:34 | 39.71648 | -86.30057 | 784 ft | 0 kts | 130° |
| 2026-05-06 17:38 | 39.71646 | -86.30036 | 784 ft | 5 kts | 80° |
| 2026-05-06 17:38 | 39.71695 | -86.30016 | 783 ft | 9 kts | 7° |
| 2026-05-06 17:38 | 39.71756 | -86.30008 | 782 ft | 9 kts | 5° |
| 2026-05-06 17:38 | 39.71806 | -86.30036 | 781 ft | 8 kts | 321° |
| 2026-05-06 17:39 | 39.71848 | -86.30093 | 778 ft | 9 kts | 311° |
| 2026-05-06 17:39 | 39.71897 | -86.30139 | 777 ft | 8 kts | 345° |
| 2026-05-06 17:39 | 39.71940 | -86.30125 | 779 ft | 5 kts | 32° |
| 2026-05-06 17:39 | 39.71962 | -86.30098 | 780 ft | 6 kts | 44° |
| 2026-05-06 17:40 | 39.71996 | -86.30055 | 781 ft | 6 kts | 45° |
| 2026-05-06 17:40 | 39.72022 | -86.30020 | 781 ft | 8 kts | 45° |
| 2026-05-06 17:40 | 39.72083 | -86.29944 | 781 ft | 16 kts | 44° |
| 2026-05-06 17:40 | 39.72176 | -86.29826 | 782 ft | 21 kts | 45° |
| 2026-05-06 17:41 | 39.72290 | -86.29678 | 778 ft | 23 kts | 44° |
| 2026-05-06 17:41 | 39.72417 | -86.29517 | 778 ft | 28 kts | 45° |
| 2026-05-06 17:41 | 39.72525 | -86.29380 | 778 ft | 18 kts | 43° |
| 2026-05-06 17:41 | 39.72619 | -86.29261 | 779 ft | 21 kts | 44° |
| 2026-05-06 17:42 | 39.72699 | -86.29173 | 780 ft | 10 kts | 9° |
| 2026-05-06 17:42 | 39.72752 | -86.29215 | 780 ft | 8 kts | 316° |
| 2026-05-06 17:42 | 39.72805 | -86.29286 | 779 ft | 13 kts | 306° |
| 2026-05-06 17:42 | 39.72772 | -86.29368 | 777 ft | 10 kts | 224° |
| 2026-05-06 17:43 | 39.72684 | -86.29480 | 777 ft | 41 kts | 224° |
| 2026-05-06 17:43 | 39.72312 | -86.29949 | 781 ft | 106 kts | 224° |
| 2026-05-06 17:43 | 39.71657 | -86.30785 | 780 ft | 156 kts | 225° |
| 2026-05-06 17:43 | 39.70838 | -86.31848 | 1222 ft | 165 kts | 226° |
| 2026-05-06 17:44 | 39.70022 | -86.32898 | 1918 ft | 168 kts | 228° |
| 2026-05-06 17:44 | 39.69194 | -86.33975 | 2576 ft | 169 kts | 229° |
| 2026-05-06 17:44 | 39.68330 | -86.35109 | 2893 ft | 187 kts | 227° |
| 2026-05-06 17:44 | 39.67375 | -86.36365 | 3113 ft | 209 kts | 227° |
| 2026-05-06 17:45 | 39.66297 | -86.37786 | 3367 ft | 233 kts | 229° |
| 2026-05-06 17:45 | 39.65457 | -86.39663 | 3708 ft | 251 kts | 256° |
| 2026-05-06 17:45 | 39.65022 | -86.41904 | 4403 ft | 258 kts | 258° |
| 2026-05-06 17:45 | 39.64590 | -86.44183 | 5196 ft | 262 kts | 258° |
| 2026-05-06 17:46 | 39.64157 | -86.46466 | 5999 ft | 265 kts | 258° |
| 2026-05-06 17:46 | 39.63714 | -86.48799 | 6790 ft | 267 kts | 257° |
| 2026-05-06 17:46 | 39.63268 | -86.51133 | 7670 ft | 264 kts | 256° |